createdAt,value
2019-01-10T00:01:14.565Z,102193.55
2019-01-10T00:03:45.014Z,102197.39
2019-01-10T00:06:15.584Z,102191.09
2019-01-10T00:08:45.942Z,102195.87
2019-01-10T00:11:17.657Z,102194.31
2019-01-10T00:13:47.958Z,102197.62
2019-01-10T00:16:18.608Z,102198.68
2019-01-10T00:18:50.432Z,102206.72
2019-01-10T00:21:21.037Z,102207.02
2019-01-10T00:23:51.526Z,102202.35
2019-01-10T00:26:22.370Z,102199.84
2019-01-10T00:28:54.460Z,102196.59
2019-01-10T00:31:24.865Z,102199.64
2019-01-10T00:33:55.547Z,102192.89
2019-01-10T00:36:25.898Z,102205.94
2019-01-10T00:38:56.310Z,102210.80
2019-01-10T00:41:26.806Z,102205.94
2019-01-10T00:43:57.233Z,102206.89
2019-01-10T00:46:27.606Z,102201.56
2019-01-10T00:48:58.150Z,102203.25
2019-01-10T00:51:30.019Z,102203.84
2019-01-10T00:54:00.308Z,102208.27
2019-01-10T00:56:30.606Z,102213.45
2019-01-10T00:59:02.909Z,102213.61
2019-01-10T01:01:33.262Z,102213.67
2019-01-10T01:04:06.175Z,102221.23
2019-01-10T01:06:37.577Z,102216.80
2019-01-10T01:09:09.250Z,102221.09
2019-01-10T01:11:39.861Z,102221.83
2019-01-10T01:14:10.459Z,102222.42
2019-01-10T01:16:40.755Z,102223.31
2019-01-10T01:19:12.703Z,102225.58
2019-01-10T01:21:45.469Z,102226.47
2019-01-10T01:24:15.679Z,102228.81
2019-01-10T01:26:46.008Z,102219.81
2019-01-10T01:29:18.577Z,102235.28
2019-01-10T01:31:48.964Z,102236.38
2019-01-10T01:34:19.490Z,102236.25
2019-01-10T01:36:50.014Z,102243.08
2019-01-10T01:39:20.427Z,102248.38
2019-01-10T01:41:51.231Z,102246.25
2019-01-10T01:44:21.750Z,102248.66
2019-01-10T01:46:52.689Z,102251.28
2019-01-10T01:49:23.218Z,102253.27
2019-01-10T01:51:55.041Z,102246.92
2019-01-10T01:54:25.372Z,102263.23
2019-01-10T01:56:57.455Z,102263.23
2019-01-10T01:59:27.744Z,102265.74
2019-01-10T02:01:58.337Z,102259.80
2019-01-10T02:04:28.753Z,102259.80
2019-01-10T02:07:00.245Z,102265.93
2019-01-10T02:09:32.114Z,102267.55
2019-01-10T02:12:03.209Z,102270.77
2019-01-10T02:14:33.733Z,102273.42
2019-01-10T02:17:04.101Z,102279.36
2019-01-10T02:19:34.422Z,102283.36
2019-01-10T02:22:05.943Z,102278.81
2019-01-10T02:24:36.373Z,102279.72
2019-01-10T02:27:06.945Z,102283.42
2019-01-10T02:29:37.255Z,102283.48
2019-01-10T02:32:07.948Z,102279.94
2019-01-10T02:34:40.028Z,102278.59
2019-01-10T02:37:10.295Z,102282.77
2019-01-10T02:39:40.716Z,102288.83
2019-01-10T02:42:11.193Z,102288.11
2019-01-10T02:44:41.773Z,102288.91
2019-01-10T02:47:13.563Z,102298.62
2019-01-10T02:49:43.860Z,102306.77
2019-01-10T02:52:14.402Z,102315.72
2019-01-10T02:54:45.896Z,102316.55
2019-01-10T02:57:16.243Z,102313.80
2019-01-10T02:59:48.667Z,102316.19
2019-01-10T03:02:18.914Z,102312.70
2019-01-10T03:04:51.605Z,102312.04
2019-01-10T03:07:21.931Z,102307.14
2019-01-10T03:09:52.439Z,102307.00
2019-01-10T03:12:22.812Z,102310.84
2019-01-10T03:14:54.819Z,102302.46
2019-01-10T03:17:26.927Z,102306.91
2019-01-10T03:19:59.599Z,102302.92
2019-01-10T03:22:31.587Z,102302.09
2019-01-10T03:25:04.330Z,102301.13
2019-01-10T03:27:36.792Z,102298.17
2019-01-10T03:30:09.706Z,102298.06
2019-01-10T03:32:40.001Z,102295.05
2019-01-10T03:35:13.486Z,102298.17
2019-01-10T03:37:43.795Z,102298.59
2019-01-10T03:40:17.655Z,102292.83
2019-01-10T03:42:48.042Z,102292.83
2019-01-10T03:45:20.505Z,102294.14
2019-01-10T03:47:50.868Z,102296.80
2019-01-10T03:50:21.529Z,102296.38
2019-01-10T03:52:53.516Z,102301.94
2019-01-10T03:55:23.856Z,102301.05
2019-01-10T03:57:54.680Z,102304.46
2019-01-10T04:00:25.969Z,102298.42
2019-01-10T04:02:56.485Z,102307.19
2019-01-10T04:05:26.933Z,102312.89
2019-01-10T04:07:59.231Z,102314.38
2019-01-10T04:10:29.805Z,102302.16
2019-01-10T04:13:00.413Z,102306.30
2019-01-10T04:15:30.755Z,102314.02
2019-01-10T04:18:01.628Z,102308.09
2019-01-10T04:20:31.987Z,102308.09
2019-01-10T04:23:02.512Z,102320.92
2019-01-10T04:25:32.823Z,102320.98
2019-01-10T04:28:05.330Z,102321.52
2019-01-10T04:30:37.097Z,102316.31
2019-01-10T04:33:07.692Z,102319.79
2019-01-10T04:35:38.122Z,102322.91
2019-01-10T04:38:09.912Z,102319.66
2019-01-10T04:40:40.524Z,102324.70
2019-01-10T04:43:11.340Z,102329.57
2019-01-10T04:45:42.637Z,102327.28
2019-01-10T04:48:12.919Z,102324.10
2019-01-10T04:50:43.475Z,102331.42
2019-01-10T04:53:13.821Z,102332.09
2019-01-10T04:55:44.473Z,102324.33
2019-01-10T04:58:14.764Z,102325.59
2019-01-10T05:00:45.525Z,102325.72
2019-01-10T05:03:15.820Z,102332.25
2019-01-10T05:05:46.730Z,102327.22
2019-01-10T05:08:17.080Z,102335.80
2019-01-10T05:10:47.889Z,102335.80
2019-01-10T05:13:21.309Z,102331.36
2019-01-10T05:15:51.792Z,102327.22
2019-01-10T05:18:22.107Z,102332.98
2019-01-10T05:20:53.767Z,102327.28
2019-01-10T05:23:24.354Z,102329.38
2019-01-10T05:25:55.906Z,102330.03
2019-01-10T05:28:26.205Z,102325.06
2019-01-10T05:30:56.843Z,102317.27
2019-01-10T05:33:27.207Z,102319.50
2019-01-10T05:35:58.006Z,102320.69
2019-01-10T05:38:29.612Z,102325.80
2019-01-10T05:40:59.933Z,102316.25
2019-01-10T05:43:30.546Z,102308.25
2019-01-10T05:46:00.839Z,102308.25
2019-01-10T05:48:31.702Z,102313.66
2019-01-10T05:51:04.973Z,102322.54
2019-01-10T05:53:35.678Z,102328.31
2019-01-10T05:56:15.005Z,102333.15
2019-01-10T05:58:38.294Z,102335.20
2019-01-10T06:01:08.594Z,102335.80
2019-01-10T06:03:39.641Z,102337.29
2019-01-10T06:06:09.968Z,102335.07
2019-01-10T06:08:40.486Z,102346.41
2019-01-10T06:11:10.840Z,102355.36
2019-01-10T06:13:41.245Z,102360.56
2019-01-10T06:16:11.749Z,102360.75
2019-01-10T06:18:43.302Z,102359.07
2019-01-10T06:21:13.601Z,102364.17
2019-01-10T06:23:45.118Z,102366.27
2019-01-10T06:26:15.438Z,102363.98
2019-01-10T06:28:47.146Z,102369.88
2019-01-10T06:31:17.661Z,102374.32
2019-01-10T06:33:49.399Z,102379.89
2019-01-10T06:36:22.088Z,102373.83
2019-01-10T06:38:52.694Z,102384.27
2019-01-10T06:41:23.432Z,102386.13
2019-01-10T06:43:54.149Z,102387.88
2019-01-10T06:46:24.774Z,102385.95
2019-01-10T06:48:55.190Z,102389.23
2019-01-10T06:51:25.756Z,102391.16
2019-01-10T06:56:46.308Z,102387.98
2019-01-10T07:01:44.419Z,102389.97
2019-01-10T07:04:14.775Z,102396.86
2019-01-10T07:06:45.093Z,102398.72
2019-01-10T07:09:15.670Z,102400.11
2019-01-10T07:11:45.980Z,102399.38
2019-01-10T07:14:17.251Z,102403.76
2019-01-10T07:16:53.487Z,102406.05
2019-01-10T07:19:44.853Z,102399.08
2019-01-10T07:22:18.328Z,102410.79
2019-01-10T07:24:52.670Z,102405.31
2019-01-10T07:27:23.205Z,102408.43
2019-01-10T07:29:59.674Z,102413.31
2019-01-10T07:32:32.145Z,102410.95
2019-01-10T07:35:05.467Z,102416.29
2019-01-10T07:37:38.227Z,102405.61
2019-01-10T07:40:15.006Z,102406.03
2019-01-10T07:42:45.632Z,102405.80
2019-01-10T07:45:19.016Z,102409.51
2019-01-10T07:47:50.605Z,102406.63
2019-01-10T07:50:51.479Z,102409.37
2019-01-10T07:53:21.816Z,102414.97
2019-01-10T07:55:52.603Z,102415.80
2019-01-10T07:58:22.932Z,102420.84
2019-01-10T08:00:54.513Z,102419.66
2019-01-10T08:03:26.265Z,102417.80
2019-01-10T08:05:57.034Z,102418.92
2019-01-10T08:08:27.497Z,102426.62
2019-01-10T08:10:58.061Z,102429.44
2019-01-10T08:13:30.352Z,102429.82
2019-01-10T08:16:00.709Z,102440.70
2019-01-10T08:18:31.356Z,102437.45
2019-01-10T08:21:01.723Z,102446.03
2019-01-10T08:23:33.921Z,102440.55
2019-01-10T08:26:06.034Z,102449.67
2019-01-10T08:28:36.742Z,102455.98
2019-01-10T08:31:07.396Z,102454.48
2019-01-10T08:33:38.135Z,102454.78
2019-01-10T08:36:08.602Z,102458.33
2019-01-10T08:38:39.903Z,102457.12
2019-01-10T08:41:10.386Z,102452.97
2019-01-10T08:43:40.752Z,102455.12
2019-01-10T08:46:11.156Z,102458.83
2019-01-10T08:48:42.960Z,102463.48
2019-01-10T08:51:13.514Z,102469.95
2019-01-10T08:53:53.590Z,102461.77
2019-01-10T08:56:15.984Z,102465.19
2019-01-10T08:58:48.897Z,102467.64
2019-01-10T09:01:19.494Z,102464.14
2019-01-10T09:03:51.813Z,102472.02
2019-01-10T09:06:23.551Z,102465.95
2019-01-10T09:08:53.853Z,102473.91
2019-01-10T09:11:24.612Z,102463.98
2019-01-10T09:13:56.223Z,102474.36
2019-01-10T09:16:26.690Z,102476.08
2019-01-10T09:18:57.305Z,102477.22
2019-01-10T09:21:27.896Z,102477.14
2019-01-10T09:23:58.568Z,102480.93
2019-01-10T09:26:37.699Z,102480.20
2019-01-10T09:29:02.269Z,102484.39
2019-01-10T09:31:32.906Z,102477.27
2019-01-10T09:34:03.333Z,102490.18
2019-01-10T09:36:33.919Z,102481.09
2019-01-10T09:39:06.537Z,102489.16
2019-01-10T09:41:37.322Z,102499.06
2019-01-10T09:44:08.133Z,102490.71
2019-01-10T09:46:38.818Z,102493.53
2019-01-10T09:49:09.218Z,102493.53
2019-01-10T09:51:39.900Z,102492.09
2019-01-10T09:54:10.226Z,102499.19
2019-01-10T09:56:42.017Z,102511.41
2019-01-10T09:59:12.326Z,102502.60
2019-01-10T10:01:46.153Z,102496.75
2019-01-10T10:04:16.628Z,102504.41
2019-01-10T10:06:49.856Z,102507.69
2019-01-10T10:09:20.138Z,102500.38
2019-01-10T10:11:52.321Z,102506.23
2019-01-10T10:14:22.966Z,102513.61
2019-01-10T10:16:53.639Z,102511.08
2019-01-10T10:19:23.950Z,102505.58
2019-01-10T10:21:54.538Z,102503.63
2019-01-10T10:24:25.170Z,102504.56
2019-01-10T10:26:55.980Z,102507.39
2019-01-10T10:29:26.606Z,102504.50
2019-01-10T10:31:56.879Z,102500.23
2019-01-10T10:34:28.206Z,102499.52
2019-01-10T10:36:58.842Z,102495.91
2019-01-10T10:39:29.773Z,102490.73
2019-01-10T10:42:01.536Z,102497.97
2019-01-10T10:44:31.953Z,102492.55
2019-01-10T10:47:02.490Z,102511.91
2019-01-10T10:49:34.152Z,102498.99
2019-01-10T10:52:04.820Z,102490.39
2019-01-10T10:54:35.125Z,102496.61
2019-01-10T10:57:07.457Z,102506.69
2019-01-10T10:59:38.139Z,102503.16
2019-01-10T11:02:12.744Z,102508.00
2019-01-10T11:04:43.080Z,102505.20
2019-01-10T11:07:13.399Z,102504.95
2019-01-10T11:09:44.659Z,102504.42
2019-01-10T11:12:18.420Z,102510.53
2019-01-10T11:14:49.359Z,102500.89
2019-01-10T11:17:19.682Z,102502.31
2019-01-10T11:19:52.490Z,102507.27
2019-01-10T11:22:22.780Z,102501.95
2019-01-10T11:24:53.247Z,102495.36
2019-01-10T11:27:23.546Z,102492.83
2019-01-10T11:29:55.169Z,102493.61
2019-01-10T11:32:25.618Z,102490.06
2019-01-10T11:34:56.111Z,102497.94
2019-01-10T11:37:26.757Z,102485.27
2019-01-10T11:39:57.416Z,102484.48
2019-01-10T11:42:28.991Z,102483.37
2019-01-10T11:45:01.403Z,102476.03
2019-01-10T11:47:32.253Z,102476.57
2019-01-10T11:50:02.656Z,102480.99
2019-01-10T11:52:33.099Z,102477.95
2019-01-10T11:55:03.925Z,102476.45
2019-01-10T11:57:34.622Z,102475.66
2019-01-10T12:00:08.041Z,102475.92
2019-01-10T12:02:38.624Z,102464.39
2019-01-10T12:05:10.196Z,102464.39
2019-01-10T12:07:41.919Z,102461.22
2019-01-10T12:10:12.576Z,102461.22
2019-01-10T12:12:43.116Z,102462.49
2019-01-10T12:15:13.728Z,102468.05
2019-01-10T12:17:47.346Z,102466.16
2019-01-10T12:20:17.988Z,102459.19
2019-01-10T12:22:49.754Z,102471.36
2019-01-10T12:25:20.392Z,102471.36
2019-01-10T12:27:50.975Z,102465.91
2019-01-10T12:30:23.871Z,102458.92
2019-01-10T12:32:54.296Z,102449.28
2019-01-10T12:35:25.951Z,102448.16
2019-01-10T12:37:58.914Z,102441.91
2019-01-10T12:40:30.796Z,102437.08
2019-01-10T12:43:01.452Z,102435.33
2019-01-10T12:45:31.917Z,102435.19
2019-01-10T12:48:03.853Z,102438.25
2019-01-10T12:50:35.009Z,102439.39
2019-01-10T12:53:09.762Z,102438.38
2019-01-10T12:55:44.907Z,102436.23
2019-01-10T12:58:17.926Z,102437.61
2019-01-10T13:00:48.260Z,102434.06
2019-01-10T13:03:18.640Z,102433.58
2019-01-10T13:05:48.963Z,102438.40
2019-01-10T13:08:20.654Z,102441.19
2019-01-10T13:10:52.867Z,102433.95
2019-01-10T13:13:23.441Z,102433.95
2019-01-10T13:15:54.076Z,102437.38
2019-01-10T13:18:24.423Z,102442.59
2019-01-10T13:20:59.463Z,102442.59
2019-01-10T13:23:28.735Z,102439.52
2019-01-10T13:25:59.990Z,102447.89
2019-01-10T13:28:30.319Z,102448.55
2019-01-10T13:31:01.620Z,102440.13
2019-01-10T13:33:31.928Z,102438.36
2019-01-10T13:36:02.677Z,102433.94
2019-01-10T13:38:32.974Z,102433.94
2019-01-10T13:41:03.310Z,102439.63
2019-01-10T13:43:33.835Z,102441.41
2019-01-10T13:46:05.599Z,102439.60
2019-01-10T13:48:37.963Z,102436.45
2019-01-10T13:51:08.531Z,102439.87
2019-01-10T13:53:39.276Z,102440.89
2019-01-10T13:56:14.282Z,102449.52
2019-01-10T13:58:46.025Z,102450.80
2019-01-10T14:01:16.613Z,102451.06
2019-01-10T14:03:47.217Z,102452.06
2019-01-10T14:06:17.930Z,102454.47
2019-01-10T14:08:48.224Z,102456.91
2019-01-10T14:11:18.848Z,102451.09
2019-01-10T14:13:49.247Z,102445.50
2019-01-10T14:16:22.271Z,102449.19
2019-01-10T14:18:52.570Z,102446.89
2019-01-10T14:21:22.931Z,102450.55
2019-01-10T14:23:53.560Z,102457.41
2019-01-10T14:26:27.004Z,102463.52
2019-01-10T14:28:59.120Z,102459.94
2019-01-10T14:31:29.419Z,102459.94
2019-01-10T14:33:59.885Z,102462.11
2019-01-10T14:36:33.314Z,102454.88
2019-01-10T14:39:08.772Z,102451.72
2019-01-10T14:41:39.285Z,102454.59
2019-01-10T14:44:09.935Z,102446.88
2019-01-10T14:46:40.852Z,102452.32
2019-01-10T14:49:13.234Z,102457.61
2019-01-10T14:51:43.860Z,102440.88
2019-01-10T14:54:14.279Z,102440.88
2019-01-10T14:56:44.575Z,102442.30
2019-01-10T14:59:20.542Z,102444.94
2019-01-10T15:01:49.415Z,102444.94
2019-01-10T15:04:20.800Z,102445.95
2019-01-10T15:06:51.070Z,102447.22
2019-01-10T15:09:21.911Z,102454.07
2019-01-10T15:11:52.238Z,102444.56
2019-01-10T15:14:23.691Z,102453.80
2019-01-10T15:16:54.152Z,102445.68
2019-01-10T15:19:24.950Z,102446.69
2019-01-10T15:21:56.357Z,102446.42
2019-01-10T15:24:26.656Z,102446.90
2019-01-10T15:26:57.485Z,102442.34
2019-01-10T15:29:27.856Z,102442.83
2019-01-10T15:31:58.206Z,102445.09
2019-01-10T15:34:28.873Z,102438.75
2019-01-10T15:37:06.718Z,102444.33
2019-01-10T15:39:37.394Z,102442.65
2019-01-10T15:42:07.862Z,102443.53
2019-01-10T15:44:39.779Z,102441.47
2019-01-10T15:47:12.103Z,102441.20
2019-01-10T15:49:43.107Z,102440.66
2019-01-10T15:52:15.106Z,102450.31
2019-01-10T15:54:45.756Z,102456.90
2019-01-10T15:57:16.119Z,102457.64
2019-01-10T15:59:46.763Z,102452.83
2019-01-10T16:02:17.412Z,102457.52
2019-01-10T16:04:52.202Z,102450.52
2019-01-10T16:07:22.800Z,102459.63
2019-01-10T16:09:55.374Z,102455.08
2019-01-10T16:12:25.666Z,102451.87
2019-01-10T16:14:56.785Z,102449.12
2019-01-10T16:17:27.069Z,102454.57
2019-01-10T16:19:58.522Z,102446.86
2019-01-10T16:22:28.868Z,102450.50
2019-01-10T16:25:00.005Z,102443.69
2019-01-10T16:27:32.050Z,102452.77
2019-01-10T16:30:07.084Z,102454.80
2019-01-10T16:32:37.463Z,102455.17
2019-01-10T16:35:08.385Z,102451.50
2019-01-10T16:37:39.157Z,102447.21
2019-01-10T16:40:10.397Z,102451.13
2019-01-10T16:42:40.869Z,102445.54
2019-01-10T16:45:15.898Z,102459.86
2019-01-10T16:47:46.869Z,102452.00
2019-01-10T16:50:18.280Z,102447.31
2019-01-10T16:52:48.673Z,102452.38
2019-01-10T16:55:19.349Z,102450.58
2019-01-10T16:57:49.999Z,102448.67
2019-01-10T17:00:26.549Z,102451.95
2019-01-10T17:02:56.941Z,102451.83
2019-01-10T17:05:27.406Z,102453.09
2019-01-10T17:07:59.426Z,102450.04
2019-01-10T17:10:29.745Z,102450.94
2019-01-10T17:15:36.933Z,102447.41
2019-01-10T17:18:07.870Z,102443.89
2019-01-10T17:20:40.193Z,102451.11
2019-01-10T17:23:13.583Z,102449.47
2019-01-10T17:25:45.567Z,102450.21
2019-01-10T17:28:16.356Z,102451.50
2019-01-10T17:30:49.388Z,102451.87
2019-01-10T17:33:19.834Z,102454.03
2019-01-10T17:35:50.281Z,102456.83
2019-01-10T17:38:20.782Z,102458.89
2019-01-10T17:40:51.458Z,102463.70
2019-01-10T17:43:22.939Z,102467.37
2019-01-10T17:46:01.469Z,102470.28
2019-01-10T17:48:30.217Z,102474.81
2019-01-10T17:51:01.052Z,102476.61
2019-01-10T17:53:31.519Z,102474.56
2019-01-10T17:56:05.100Z,102475.09
2019-01-10T17:58:35.498Z,102473.56
2019-01-10T18:01:08.041Z,102471.19
2019-01-10T18:03:40.375Z,102471.19
2019-01-10T18:06:10.671Z,102474.61
2019-01-10T18:08:42.012Z,102469.55
2019-01-10T18:11:14.735Z,102469.92
2019-01-10T18:13:46.615Z,102464.59
2019-01-10T18:16:17.547Z,102469.55
2019-01-10T18:18:48.328Z,102468.29
2019-01-10T18:21:20.240Z,102471.94
2019-01-10T18:23:54.975Z,102471.81
2019-01-10T18:26:27.131Z,102464.97
2019-01-10T18:28:57.994Z,102464.44
2019-01-10T18:31:30.763Z,102474.34
2019-01-10T18:34:01.215Z,102469.77
2019-01-10T18:36:36.061Z,102472.08
2019-01-10T18:39:08.401Z,102472.58
2019-01-10T18:41:41.503Z,102476.52
2019-01-10T18:44:14.038Z,102464.36
2019-01-10T18:46:45.923Z,102467.04
2019-01-10T18:49:23.291Z,102464.51
2019-01-10T18:51:55.692Z,102464.14
2019-01-10T18:54:27.185Z,102468.30
2019-01-10T18:56:57.879Z,102458.70
2019-01-10T18:59:28.362Z,102461.35
2019-01-10T19:01:59.521Z,102459.19
2019-01-10T19:04:29.954Z,102462.98
2019-01-10T19:07:00.349Z,102465.27
2019-01-10T19:09:30.980Z,102464.25
2019-01-10T19:12:01.772Z,102465.77
2019-01-10T19:14:32.703Z,102469.94
2019-01-10T19:17:05.840Z,102468.41
2019-01-10T19:19:36.546Z,102466.38
2019-01-10T19:22:07.021Z,102465.44
2019-01-10T19:24:37.717Z,102470.20
2019-01-10T19:27:10.024Z,102469.07
2019-01-10T19:29:40.364Z,102479.29
2019-01-10T19:32:11.030Z,102468.38
2019-01-10T19:34:41.717Z,102472.44
2019-01-10T19:37:12.415Z,102464.37
2019-01-10T19:39:42.830Z,102469.93
2019-01-10T19:42:13.265Z,102466.64
2019-01-10T19:44:44.471Z,102462.57
2019-01-10T19:47:16.570Z,102468.59
2019-01-10T19:49:47.175Z,102468.78
2019-01-10T19:52:18.822Z,102470.00
2019-01-10T19:54:53.787Z,102474.50
2019-01-10T19:57:24.426Z,102474.66
2019-01-10T19:59:54.821Z,102474.90
2019-01-10T20:02:26.858Z,102474.74
2019-01-10T20:04:58.371Z,102468.14
2019-01-10T20:07:29.025Z,102473.08
2019-01-10T20:09:59.910Z,102478.38
2019-01-10T20:12:34.546Z,102478.99
2019-01-10T20:15:06.264Z,102471.22
2019-01-10T20:17:38.247Z,102472.48
2019-01-10T20:20:14.681Z,102478.39
2019-01-10T20:22:48.059Z,102482.55
2019-01-10T20:25:18.550Z,102487.89
2019-01-10T20:27:49.749Z,102482.09
2019-01-10T20:30:20.829Z,102481.92
2019-01-10T20:32:51.608Z,102487.17
2019-01-10T20:35:22.140Z,102479.46
2019-01-10T20:37:56.473Z,102481.78
2019-01-10T20:40:26.963Z,102483.04
2019-01-10T20:42:58.215Z,102480.52
2019-01-10T20:45:30.168Z,102483.53
2019-01-10T20:48:01.525Z,102483.53
2019-01-10T20:50:32.307Z,102479.73
2019-01-10T20:53:03.959Z,102485.33
2019-01-10T20:55:36.208Z,102496.73
2019-01-10T20:58:07.891Z,102486.62
2019-01-10T21:00:40.201Z,102487.14
2019-01-10T21:03:10.610Z,102489.05
2019-01-10T21:05:47.952Z,102485.27
2019-01-10T21:08:18.642Z,102477.41
2019-01-10T21:10:48.990Z,102480.02
2019-01-10T21:13:20.189Z,102480.88
2019-01-10T21:15:53.478Z,102476.20
2019-01-10T21:18:28.637Z,102468.67
2019-01-10T21:20:58.280Z,102468.67
2019-01-10T21:23:29.343Z,102474.37
2019-01-10T21:25:59.997Z,102482.58
2019-01-10T21:28:30.705Z,102472.83
2019-01-10T21:31:01.672Z,102478.41
2019-01-10T21:33:33.813Z,102479.95
2019-01-10T21:36:04.751Z,102476.41
2019-01-10T21:38:35.277Z,102481.19
2019-01-10T21:41:06.396Z,102486.98
2019-01-10T21:43:36.962Z,102486.70
2019-01-10T21:46:07.322Z,102487.16
2019-01-10T21:48:38.068Z,102485.12
2019-01-10T21:51:08.704Z,102478.27
2019-01-10T21:53:39.195Z,102478.52
2019-01-10T21:56:11.768Z,102483.45
2019-01-10T21:58:42.085Z,102481.50
2019-01-10T22:01:13.697Z,102475.95
2019-01-10T22:03:44.484Z,102483.00
2019-01-10T22:06:20.482Z,102477.42
2019-01-10T22:08:50.771Z,102482.64
2019-01-10T22:11:38.330Z,102483.28
2019-01-10T22:14:01.390Z,102481.00
2019-01-10T22:16:31.948Z,102485.62
2019-01-10T22:19:02.328Z,102485.34
2019-01-10T22:21:33.060Z,102483.21
2019-01-10T22:24:03.528Z,102477.87
2019-01-10T22:26:34.340Z,102481.78
2019-01-10T22:29:07.812Z,102480.20
2019-01-10T22:31:38.496Z,102480.20
2019-01-10T22:34:14.794Z,102483.63
2019-01-10T22:36:45.475Z,102482.97
2019-01-10T22:39:16.158Z,102480.08
2019-01-10T22:41:47.931Z,102479.79
2019-01-10T22:44:18.291Z,102478.84
2019-01-10T22:46:50.419Z,102474.01
2019-01-10T22:49:20.822Z,102467.32
2019-01-10T22:51:55.390Z,102467.04
2019-01-10T22:54:27.226Z,102465.00
2019-01-10T22:57:01.063Z,102467.36
2019-01-10T22:59:31.429Z,102462.19
2019-01-10T23:02:02.323Z,102460.68
2019-01-10T23:04:36.672Z,102457.26
2019-01-10T23:07:22.090Z,102450.95
2019-01-10T23:09:54.194Z,102452.37
2019-01-10T23:12:33.435Z,102452.12
2019-01-10T23:15:30.277Z,102452.12
2019-01-10T23:18:02.567Z,102452.12
2019-01-10T23:20:34.214Z,102447.56
2019-01-10T23:23:07.592Z,102445.94
2019-01-10T23:25:37.978Z,102441.50
2019-01-10T23:28:13.263Z,102435.71
2019-01-10T23:30:48.464Z,102429.64
2019-01-10T23:33:21.703Z,102436.16
2019-01-10T23:35:57.764Z,102429.35
2019-01-10T23:38:28.505Z,102430.45
2019-01-10T23:40:59.597Z,102430.22
2019-01-10T23:43:30.305Z,102426.83
2019-01-10T23:46:00.903Z,102426.67
2019-01-10T23:48:31.540Z,102426.67
2019-01-10T23:51:02.213Z,102425.85
2019-01-10T23:53:32.628Z,102427.11
2019-01-10T23:56:04.032Z,102421.82
2019-01-10T23:58:36.972Z,102421.05
